Galena, AK

11:35 AM AKDT on July 31, 2014 (GMT -0800)
Pitka (PAGA) Elev 151 ft | 64.74 °N, 156.94 °W | Change Station

Current weather conditions updated 37 minutes ago

Overcast
Overcast
62 °F
Feels Like 62 °F
N
5
Wind Variable Wind from West

Today is forecast to be Much Cooler than yesterday. Chance of showers tonight.

Today
High -- | Low -- °F
--% Chance of Precip.
Yesterday
High -- | Low -- °F
Precip. -- in
5:25 AM 11:39 PM
Waxing Crescent, 20% visible
Pressure 30.19 in
Visibility 10.0 miles
Clouds Mostly Cloudy 9000 ft
Overcast 11000 ft
Dew Point 47 °F
Humidity 58%
Rainfall 0.00 in
Snow Depth Not available.
UV 1 out of 12
Pollen Not available.
Air Quality Not available.
Flu Activity Not available.
METAR PAGA 311858Z AUTO 26004KT 10SM BKN090 OVC110 17/08 A3018 RMK AO2 SLP224 T01670083 PNO $

More Conditions Fewer Conditions

Pressure 30.19 in
Visibility 10.0 miles
Clouds Mostly Cloudy 9000 ft
Overcast 11000 ft
Dew Point 47 °F
Humidity 58%
Rainfall 0.00 in
Snow Depth Not available.
UV 1 out of 12
Pollen Not available.
Air Quality Not available.
Flu Activity Not available.
METAR PAGA 311858Z AUTO 26004KT 10SM BKN090 OVC110 17/08 A3018 RMK AO2 SLP224 T01670083 PNO $

More Conditions Fewer Conditions

10-Day Weather Forecast

Almanac

Astronomy

Jul. 31, 2014 Rise Set
Actual Time 5:25 AM AKDT 11:39 PM AKDT
Civil Twilight 3:43 AM AKDT 1:18 AM AKDT
Nautical Twilight Sun does not rise Sun does not rise
Astronomical Twilight Sun does not rise Sun does not rise
Moon 12:16 PM AKDT 11:38 PM AKDT
Length of Visible Light 21h 34m
Length of Day
18h 13m
Tomorrow will be 6m 53s shorter.
Waxing Crescent, 20% of the Moon is Illuminated
Today
Waxing Crescent
Aug 3
First Quarter
Aug 10
Full
Aug 17
Last Quarter
Aug 25
New

Today's Extremes

State Highs State Lows

Community

WunderPhotos

Upload Photos

1,739,426 photos uploaded!

Nearby

Snow Depth

Station Depth Elevation
Rocky Point 2 in 500 ft
Gobblers Knob 0 in 2030 ft
Coldfoot 0 in 1040 ft
Susitna Valley High 2 in 375 ft
Little Chena Ridge 1 in 2000 ft

Earthquake Activity

City Distance Mag. Time & Date
No recent earthquake activity has been reported nearby.
Minimum magnitude displayed is 2.5.

Coastal Water Temperatures

Place Temperature
No Stations Reporting

Nearby Weather Stations

There are no personal weather stations in this area.